Time,TemperatureF,DewpointF,PressureIn,WindDirection,WindDirectionDegrees,WindSpeedMPH,WindSpeedGustMPH,Humidity,HourlyPrecipIn,Conditions,Clouds,dailyrainin,SoftwareType,DateUTC
2013-12-25 00:01:00,40.7,36.2,30.27,NNE,26,0.0,0.0,84,0.00,,,0.00,WeatherCatV1.23B14,2013-12-25 06:01:00,
2013-12-25 00:06:00,40.4,36.0,30.27,NW,311,0.0,0.0,84,0.00,,,0.00,WeatherCatV1.23B14,2013-12-25 06:06:00,
2013-12-25 00:11:00,40.9,37.0,30.27,North,3,1.0,1.0,86,0.00,,,0.00,WeatherCatV1.23B14,2013-12-25 06:11:00,
2013-12-25 00:16:00,40.7,36.8,30.27,North,3,0.0,1.0,86,0.00,,,0.00,WeatherCatV1.23B14,2013-12-25 06:16:00,
2013-12-25 00:21:00,41.2,38.2,30.27,ESE,104,1.0,2.0,89,0.00,,,0.00,WeatherCatV1.23B14,2013-12-25 06:21:00,
2013-12-25 00:26:00,42.2,39.2,30.26,SE,127,2.0,2.0,89,0.00,,,0.00,WeatherCatV1.23B14,2013-12-25 06:26:00,
2013-12-25 00:31:00,42.7,39.4,30.26,SE,134,1.0,2.0,88,0.00,,,0.00,WeatherCatV1.23B14,2013-12-25 06:31:00,
2013-12-25 00:36:00,42.9,39.6,30.26,East,97,1.0,2.0,88,0.00,,,0.00,WeatherCatV1.23B14,2013-12-25 06:36:00,
2013-12-25 00:41:00,43.1,39.8,30.26,ESE,122,1.0,2.0,88,0.00,,,0.00,WeatherCatV1.23B14,2013-12-25 06:41:00,
2013-12-25 00:46:00,43.2,39.9,30.26,ESE,112,1.0,2.0,88,0.00,,,0.00,WeatherCatV1.23B14,2013-12-25 06:46:00,
2013-12-25 00:51:00,43.2,39.9,30.26,SE,129,0.0,1.0,88,0.00,,,0.00,WeatherCatV1.23B14,2013-12-25 06:51:00,
2013-12-25 00:56:00,43.2,39.9,30.26,East,100,1.0,2.0,88,0.00,,,0.00,WeatherCatV1.23B14,2013-12-25 06:56:00,
2013-12-25 01:01:00,43.1,39.8,30.26,SE,128,1.0,1.0,88,0.00,,,0.00,WeatherCatV1.23B14,2013-12-25 07:01:00,
2013-12-25 01:06:00,43.0,39.7,30.26,ESE,107,0.0,1.0,88,0.00,,,0.00,WeatherCatV1.23B14,2013-12-25 07:06:00,
2013-12-25 01:11:00,42.8,39.8,30.26,ESE,119,1.0,1.0,89,0.00,,,0.00,WeatherCatV1.23B14,2013-12-25 07:11:00,
2013-12-25 01:16:00,42.8,39.8,30.26,East,101,0.0,0.0,89,0.00,,,0.00,WeatherCatV1.23B14,2013-12-25 07:16:00,
2013-12-25 01:20:00,42.7,39.7,30.26,ESE,102,0.0,0.0,89,0.00,,,0.00,WeatherCatV1.23B14,2013-12-25 07:20:00,
2013-12-25 01:25:00,42.4,39.4,30.26,ESE,102,0.0,0.0,89,0.00,,,0.00,WeatherCatV1.23B14,2013-12-25 07:25:00,
2013-12-25 01:30:00,42.4,39.7,30.26,ESE,120,0.0,1.0,90,0.00,,,0.00,WeatherCatV1.23B14,2013-12-25 07:30:00,
2013-12-25 01:35:00,42.0,39.3,30.26,ESE,120,0.0,0.0,90,0.00,,,0.00,WeatherCatV1.23B14,2013-12-25 07:35:00,
2013-12-25 01:40:00,41.9,39.5,30.26,East,90,0.0,1.0,91,0.00,,,0.00,WeatherCatV1.23B14,2013-12-25 07:40:00,
2013-12-25 01:45:00,41.5,38.5,30.26,NE,53,0.0,0.0,89,0.00,,,0.00,WeatherCatV1.23B14,2013-12-25 07:45:00,
2013-12-25 01:50:00,40.9,37.9,30.26,NE,50,0.0,0.0,89,0.00,,,0.00,WeatherCatV1.23B14,2013-12-25 07:50:00,
2013-12-25 01:55:00,40.2,37.5,30.26,NE,50,0.0,0.0,90,0.00,,,0.00,WeatherCatV1.23B14,2013-12-25 07:55:00,
2013-12-25 02:00:00,39.8,37.4,30.25,NE,50,0.0,0.0,91,0.00,,,0.00,WeatherCatV1.23B14,2013-12-25 08:00:00,
2013-12-25 02:05:00,39.9,38.0,30.25,SE,146,0.0,1.0,93,0.00,,,0.00,WeatherCatV1.23B14,2013-12-25 08:05:00,
2013-12-25 02:10:00,40.8,39.5,30.25,ESE,114,0.0,1.0,95,0.00,,,0.00,WeatherCatV1.23B14,2013-12-25 08:10:00,
2013-12-25 02:15:00,41.4,39.8,30.25,ESE,103,0.0,0.0,94,0.00,,,0.00,WeatherCatV1.23B14,2013-12-25 08:15:00,
2013-12-25 02:20:00,41.2,39.0,30.26,NE,50,1.0,1.0,92,0.00,,,0.00,WeatherCatV1.23B14,2013-12-25 08:20:00,
2013-12-25 02:25:00,40.4,37.7,30.25,North,6,0.0,1.0,90,0.00,,,0.00,WeatherCatV1.23B14,2013-12-25 08:25:00,
2013-12-25 02:30:00,39.6,37.2,30.26,North,6,0.0,1.0,91,0.00,,,0.00,WeatherCatV1.23B14,2013-12-25 08:30:00,
2013-12-25 02:35:00,39.3,37.2,30.26,North,6,0.0,1.0,92,0.00,,,0.00,WeatherCatV1.23B14,2013-12-25 08:35:00,
2013-12-25 02:40:00,38.9,36.8,30.26,North,6,0.0,0.0,92,0.00,,,0.00,WeatherCatV1.23B14,2013-12-25 08:40:00,
2013-12-25 02:45:00,38.5,36.4,30.26,North,6,1.0,1.0,92,0.00,,,0.00,WeatherCatV1.23B14,2013-12-25 08:45:00,
2013-12-25 02:50:00,38.4,36.6,30.26,NNW,342,0.0,1.0,93,0.00,,,0.00,WeatherCatV1.23B14,2013-12-25 08:50:00,
2013-12-25 02:55:00,38.2,36.4,30.26,NNW,342,0.0,1.0,93,0.00,,,0.00,WeatherCatV1.23B14,2013-12-25 08:55:00,
2013-12-25 03:00:00,38.2,36.6,30.26,NNW,342,0.0,1.0,94,0.00,,,0.00,WeatherCatV1.23B14,2013-12-25 09:00:00,
2013-12-25 03:05:00,38.1,36.5,30.26,NNW,342,0.0,0.0,94,0.00,,,0.00,WeatherCatV1.23B14,2013-12-25 09:05:00,
2013-12-25 03:10:00,38.0,36.4,30.26,NW,318,0.0,1.0,94,0.00,,,0.00,WeatherCatV1.23B14,2013-12-25 09:10:00,
2013-12-25 03:15:00,38.0,36.7,30.26,NNW,342,0.0,1.0,95,0.00,,,0.00,WeatherCatV1.23B14,2013-12-25 09:15:00,
2013-12-25 03:20:00,37.8,36.2,30.26,NNW,342,0.0,0.0,94,0.00,,,0.00,WeatherCatV1.23B14,2013-12-25 09:20:00,
2013-12-25 03:25:00,37.8,36.5,30.25,NNW,342,0.0,0.0,95,0.00,,,0.00,WeatherCatV1.23B14,2013-12-25 09:25:00,
2013-12-25 03:30:00,37.6,36.0,30.25,NNW,342,0.0,0.0,94,0.00,,,0.00,WeatherCatV1.23B14,2013-12-25 09:30:00,
2013-12-25 03:35:00,37.5,36.2,30.25,NNW,342,0.0,0.0,95,0.00,,,0.00,WeatherCatV1.23B14,2013-12-25 09:35:00,
2013-12-25 03:40:00,37.5,36.2,30.25,NNW,342,1.0,1.0,95,0.00,,,0.00,WeatherCatV1.23B14,2013-12-25 09:40:00,
2013-12-25 03:45:00,37.4,36.1,30.25,NNW,342,0.0,0.0,95,0.00,,,0.00,WeatherCatV1.23B14,2013-12-25 09:45:00,
2013-12-25 03:50:00,37.3,36.0,30.25,NNW,342,0.0,1.0,95,0.00,,,0.00,WeatherCatV1.23B14,2013-12-25 09:50:00,
2013-12-25 03:55:00,37.3,36.0,30.25,NNW,342,0.0,0.0,95,0.00,,,0.00,WeatherCatV1.23B14,2013-12-25 09:55:00,
2013-12-25 04:00:00,37.6,36.6,30.24,NNW,342,0.0,0.0,96,0.00,,,0.00,WeatherCatV1.23B14,2013-12-25 10:00:00,
2013-12-25 04:05:00,37.8,36.8,30.24,NNW,342,0.0,0.0,96,0.00,,,0.00,WeatherCatV1.23B14,2013-12-25 10:05:00,
2013-12-25 04:10:00,37.9,36.9,30.25,NNW,342,0.0,1.0,96,0.00,,,0.00,WeatherCatV1.23B14,2013-12-25 10:10:00,
2013-12-25 04:15:00,37.9,36.9,30.25,NNW,342,0.0,0.0,96,0.00,,,0.00,WeatherCatV1.23B14,2013-12-25 10:15:00,
2013-12-25 04:20:00,37.6,36.3,30.25,NNW,342,0.0,0.0,95,0.00,,,0.00,WeatherCatV1.23B14,2013-12-25 10:20:00,
2013-12-25 04:25:00,37.3,36.0,30.25,NNW,342,0.0,0.0,95,0.00,,,0.00,WeatherCatV1.23B14,2013-12-25 10:25:00,
2013-12-25 04:30:00,37.1,35.8,30.24,NNW,342,0.0,1.0,95,0.00,,,0.00,WeatherCatV1.23B14,2013-12-25 10:30:00,
2013-12-25 04:35:00,37.0,35.7,30.25,NNW,342,0.0,0.0,95,0.00,,,0.00,WeatherCatV1.23B14,2013-12-25 10:35:00,
2013-12-25 04:40:00,37.0,36.0,30.25,NNW,342,0.0,0.0,96,0.00,,,0.00,WeatherCatV1.23B14,2013-12-25 10:40:00,
2013-12-25 04:45:00,37.1,36.1,30.25,NNW,342,0.0,0.0,96,0.00,,,0.00,WeatherCatV1.23B14,2013-12-25 10:45:00,
2013-12-25 04:50:00,36.9,35.9,30.25,NNW,342,0.0,1.0,96,0.00,,,0.00,WeatherCatV1.23B14,2013-12-25 10:50:00,
2013-12-25 04:55:00,36.9,35.9,30.25,NNW,342,0.0,0.0,96,0.00,,,0.00,WeatherCatV1.23B14,2013-12-25 10:55:00,
2013-12-25 05:00:00,36.8,35.8,30.25,NNW,342,0.0,0.0,96,0.00,,,0.00,WeatherCatV1.23B14,2013-12-25 11:00:00,
2013-12-25 05:05:00,36.8,35.8,30.25,NNW,342,0.0,0.0,96,0.00,,,0.00,WeatherCatV1.23B14,2013-12-25 11:05:00,
2013-12-25 05:10:00,36.6,35.3,30.25,NNW,342,0.0,1.0,95,0.00,,,0.00,WeatherCatV1.23B14,2013-12-25 11:10:00,
2013-12-25 05:15:00,36.7,35.7,30.25,NNW,342,0.0,1.0,96,0.00,,,0.00,WeatherCatV1.23B14,2013-12-25 11:15:00,
2013-12-25 05:20:00,36.7,35.7,30.25,NNW,342,0.0,1.0,96,0.00,,,0.00,WeatherCatV1.23B14,2013-12-25 11:20:00,
2013-12-25 05:25:00,36.8,35.8,30.25,NNW,342,1.0,1.0,96,0.00,,,0.00,WeatherCatV1.23B14,2013-12-25 11:25:00,
2013-12-25 05:30:00,36.7,35.7,30.25,NNW,342,0.0,0.0,96,0.00,,,0.00,WeatherCatV1.23B14,2013-12-25 11:30:00,
2013-12-25 05:35:00,36.6,35.6,30.25,NNW,342,0.0,0.0,96,0.00,,,0.00,WeatherCatV1.23B14,2013-12-25 11:35:00,
2013-12-25 05:40:00,36.5,35.5,30.25,NNW,342,0.0,0.0,96,0.00,,,0.00,WeatherCatV1.23B14,2013-12-25 11:40:00,
2013-12-25 05:45:00,36.5,35.5,30.25,NNW,342,0.0,0.0,96,0.00,,,0.00,WeatherCatV1.23B14,2013-12-25 11:45:00,
2013-12-25 05:50:00,36.6,35.6,30.25,NNW,342,0.0,1.0,96,0.00,,,0.00,WeatherCatV1.23B14,2013-12-25 11:50:00,
2013-12-25 05:55:00,36.5,35.5,30.25,NNW,342,0.0,1.0,96,0.00,,,0.00,WeatherCatV1.23B14,2013-12-25 11:55:00,
2013-12-25 06:00:00,36.5,35.5,30.25,NNW,342,0.0,0.0,96,0.00,,,0.00,WeatherCatV1.23B14,2013-12-25 12:00:00,
2013-12-25 06:05:00,36.5,35.5,30.25,NNW,342,0.0,0.0,96,0.00,,,0.00,WeatherCatV1.23B14,2013-12-25 12:05:00,
2013-12-25 06:10:00,36.4,35.4,30.26,NNW,342,0.0,1.0,96,0.00,,,0.00,WeatherCatV1.23B14,2013-12-25 12:10:00,
2013-12-25 06:15:00,36.3,35.3,30.26,NNW,342,0.0,1.0,96,0.00,,,0.00,WeatherCatV1.23B14,2013-12-25 12:15:00,
2013-12-25 06:20:00,36.2,35.2,30.26,NNW,342,0.0,0.0,96,0.00,,,0.00,WeatherCatV1.23B14,2013-12-25 12:20:00,
2013-12-25 06:25:00,35.9,34.9,30.26,NNW,342,0.0,1.0,96,0.00,,,0.00,WeatherCatV1.23B14,2013-12-25 12:25:00,
2013-12-25 06:30:00,36.1,35.1,30.26,NNW,342,0.0,0.0,96,0.00,,,0.00,WeatherCatV1.23B14,2013-12-25 12:30:00,
2013-12-25 06:35:00,35.8,34.8,30.26,NNW,342,0.0,0.0,96,0.00,,,0.00,WeatherCatV1.23B14,2013-12-25 12:35:00,
2013-12-25 06:40:00,35.6,34.6,30.27,NNW,342,0.0,0.0,96,0.00,,,0.00,WeatherCatV1.23B14,2013-12-25 12:40:00,
2013-12-25 06:45:00,35.4,34.4,30.27,NNW,342,0.0,0.0,96,0.00,,,0.00,WeatherCatV1.23B14,2013-12-25 12:45:00,
2013-12-25 06:50:00,35.3,34.3,30.27,NNW,342,0.0,0.0,96,0.00,,,0.00,WeatherCatV1.23B14,2013-12-25 12:50:00,
2013-12-25 06:55:00,35.4,34.4,30.27,NNW,342,0.0,0.0,96,0.00,,,0.00,WeatherCatV1.23B14,2013-12-25 12:55:00,
2013-12-25 07:00:00,35.6,34.6,30.27,NNW,342,0.0,0.0,96,0.00,,,0.00,WeatherCatV1.23B14,2013-12-25 13:00:00,
2013-12-25 07:05:00,36.0,35.2,30.27,NNW,342,0.0,0.0,97,0.00,,,0.00,WeatherCatV1.23B14,2013-12-25 13:05:00,
2013-12-25 07:10:00,36.5,35.7,30.27,NNW,342,0.0,0.0,97,0.00,,,0.00,WeatherCatV1.23B14,2013-12-25 13:10:00,
2013-12-25 07:15:00,36.9,36.1,30.28,NNW,342,0.0,0.0,97,0.00,,,0.00,WeatherCatV1.23B14,2013-12-25 13:15:00,
2013-12-25 07:20:00,37.1,36.3,30.28,NNW,342,0.0,0.0,97,0.00,,,0.00,WeatherCatV1.23B14,2013-12-25 13:20:00,
2013-12-25 07:25:00,37.3,36.5,30.28,NNW,342,0.0,0.0,97,0.00,,,0.00,WeatherCatV1.23B14,2013-12-25 13:25:00,
2013-12-25 07:30:00,37.7,36.9,30.28,NNW,342,0.0,0.0,97,0.00,,,0.00,WeatherCatV1.23B14,2013-12-25 13:30:00,
2013-12-25 07:35:00,37.9,37.1,30.28,NNW,342,0.0,0.0,97,0.00,,,0.00,WeatherCatV1.23B14,2013-12-25 13:35:00,
2013-12-25 07:40:00,37.8,37.0,30.28,NNW,342,0.0,0.0,97,0.00,,,0.00,WeatherCatV1.23B14,2013-12-25 13:40:00,
2013-12-25 07:45:00,37.8,37.0,30.29,NNW,342,0.0,0.0,97,0.00,,,0.00,WeatherCatV1.23B14,2013-12-25 13:45:00,
2013-12-25 07:50:00,37.8,37.0,30.29,NNW,342,0.0,0.0,97,0.00,,,0.00,WeatherCatV1.23B14,2013-12-25 13:50:00,
2013-12-25 07:55:00,37.9,37.1,30.29,NNW,342,0.0,0.0,97,0.00,,,0.00,WeatherCatV1.23B14,2013-12-25 13:55:00,
2013-12-25 08:00:00,38.0,37.2,30.29,NNW,342,0.0,0.0,97,0.00,,,0.00,WeatherCatV1.23B14,2013-12-25 14:00:00,
2013-12-25 08:05:00,38.3,37.5,30.30,NNW,342,0.0,0.0,97,0.00,,,0.00,WeatherCatV1.23B14,2013-12-25 14:05:00,
2013-12-25 08:10:00,38.5,37.7,30.30,NNW,342,0.0,0.0,97,0.00,,,0.00,WeatherCatV1.23B14,2013-12-25 14:10:00,
2013-12-25 08:15:00,38.8,38.0,30.30,NNW,342,0.0,0.0,97,0.00,,,0.00,WeatherCatV1.23B14,2013-12-25 14:15:00,
2013-12-25 08:20:00,39.2,38.4,30.30,NNW,342,0.0,0.0,97,0.00,,,0.00,WeatherCatV1.23B14,2013-12-25 14:20:00,
2013-12-25 08:25:00,39.4,38.6,30.31,NNW,342,0.0,0.0,97,0.00,,,0.00,WeatherCatV1.23B14,2013-12-25 14:25:00,
2013-12-25 08:30:00,39.7,38.9,30.31,NNW,342,0.0,0.0,97,0.00,,,0.00,WeatherCatV1.23B14,2013-12-25 14:30:00,
2013-12-25 08:35:00,40.4,39.6,30.31,NNW,342,0.0,0.0,97,0.00,,,0.00,WeatherCatV1.23B14,2013-12-25 14:35:00,
2013-12-25 08:40:00,40.8,40.0,30.31,NNW,342,0.0,0.0,97,0.00,,,0.00,WeatherCatV1.23B14,2013-12-25 14:40:00,
2013-12-25 08:45:00,41.4,40.6,30.32,NNW,342,0.0,0.0,97,0.00,,,0.00,WeatherCatV1.23B14,2013-12-25 14:45:00,
2013-12-25 08:50:00,42.1,41.0,30.32,South,184,0.0,0.0,96,0.00,,,0.00,WeatherCatV1.23B14,2013-12-25 14:50:00,
2013-12-25 08:55:00,42.8,41.2,30.32,South,184,0.0,0.0,94,0.00,,,0.00,WeatherCatV1.23B14,2013-12-25 14:55:00,
2013-12-25 09:00:00,43.1,41.2,30.32,South,184,0.0,0.0,93,0.00,,,0.00,WeatherCatV1.23B14,2013-12-25 15:00:00,
2013-12-25 09:05:00,43.7,41.8,30.32,South,184,0.0,0.0,93,0.00,,,0.00,WeatherCatV1.23B14,2013-12-25 15:05:00,
2013-12-25 09:10:00,44.4,41.9,30.32,South,184,0.0,0.0,91,0.00,,,0.00,WeatherCatV1.23B14,2013-12-25 15:10:00,
2013-12-25 09:15:00,45.5,42.7,30.32,South,184,0.0,0.0,90,0.00,,,0.00,WeatherCatV1.23B14,2013-12-25 15:15:00,
2013-12-25 09:20:00,46.3,42.9,30.33,ESE,111,1.0,2.0,88,0.00,,,0.00,WeatherCatV1.23B14,2013-12-25 15:20:00,
2013-12-25 09:25:00,45.9,42.8,30.33,ESE,111,1.0,1.0,89,0.00,,,0.00,WeatherCatV1.23B14,2013-12-25 15:25:00,
2013-12-25 09:30:00,46.3,43.2,30.33,SSE,163,1.0,1.0,89,0.00,,,0.00,WeatherCatV1.23B14,2013-12-25 15:30:00,
2013-12-25 09:35:00,46.5,42.5,30.33,South,178,0.0,1.0,86,0.00,,,0.00,WeatherCatV1.23B14,2013-12-25 15:35:00,
2013-12-25 09:40:00,46.8,42.8,30.33,ESE,116,1.0,2.0,86,0.00,,,0.00,WeatherCatV1.23B14,2013-12-25 15:40:00,
2013-12-25 09:45:00,47.4,43.4,30.33,SE,126,0.0,0.0,86,0.00,,,0.00,WeatherCatV1.23B14,2013-12-25 15:45:00,
2013-12-25 09:50:00,48.3,44.0,30.33,East,101,4.0,4.0,85,0.00,,,0.00,WeatherCatV1.23B14,2013-12-25 15:50:00,
2013-12-25 09:55:00,48.1,43.2,30.33,East,97,2.0,3.0,83,0.00,,,0.00,WeatherCatV1.23B14,2013-12-25 15:55:00,
2013-12-25 10:00:00,48.3,43.4,30.33,SE,125,0.0,1.0,83,0.00,,,0.00,WeatherCatV1.23B14,2013-12-25 16:00:00,
2013-12-25 10:05:00,48.6,43.4,30.33,SE,127,0.0,1.0,82,0.00,,,0.00,WeatherCatV1.23B14,2013-12-25 16:05:00,
2013-12-25 10:10:00,48.8,43.5,30.34,East,91,0.0,3.0,82,0.00,,,0.00,WeatherCatV1.23B14,2013-12-25 16:10:00,
2013-12-25 10:15:00,49.3,44.0,30.34,East,95,0.0,1.0,82,0.00,,,0.00,WeatherCatV1.23B14,2013-12-25 16:15:00,
2013-12-25 10:20:00,49.7,44.1,30.34,ESE,115,0.0,2.0,81,0.00,,,0.00,WeatherCatV1.23B14,2013-12-25 16:20:00,
2013-12-25 10:25:00,49.7,44.1,30.35,ESE,105,0.0,0.0,81,0.00,,,0.00,WeatherCatV1.23B14,2013-12-25 16:25:00,
2013-12-25 10:30:00,49.9,44.3,30.34,ESE,105,0.0,1.0,81,0.00,,,0.00,WeatherCatV1.23B14,2013-12-25 16:30:00,
2013-12-25 10:35:00,50.2,44.3,30.35,NE,39,0.0,1.0,80,0.00,,,0.00,WeatherCatV1.23B14,2013-12-25 16:35:00,
2013-12-25 10:40:00,50.4,44.5,30.35,NNW,341,0.0,1.0,80,0.00,,,0.00,WeatherCatV1.23B14,2013-12-25 16:40:00,
2013-12-25 10:45:00,50.8,44.2,30.35,SW,228,0.0,1.0,78,0.00,,,0.00,WeatherCatV1.23B14,2013-12-25 16:45:00,
2013-12-25 10:50:00,50.9,44.6,30.35,North,11,0.0,1.0,79,0.00,,,0.00,WeatherCatV1.23B14,2013-12-25 16:50:00,
2013-12-25 10:55:00,50.9,44.6,30.35,NNE,13,0.0,0.0,79,0.00,,,0.00,WeatherCatV1.23B14,2013-12-25 16:55:00,
2013-12-25 11:00:00,50.9,45.0,30.35,WNW,287,0.0,1.0,80,0.00,,,0.00,WeatherCatV1.23B14,2013-12-25 17:00:00,
2013-12-25 11:05:00,51.3,45.0,30.35,West,278,0.0,1.0,79,0.00,,,0.00,WeatherCatV1.23B14,2013-12-25 17:05:00,
2013-12-25 11:10:00,51.6,45.0,30.35,NE,48,1.0,2.0,78,0.00,,,0.00,WeatherCatV1.23B14,2013-12-25 17:10:00,
2013-12-25 11:15:00,51.8,45.2,30.35,West,279,1.0,2.0,78,0.00,,,0.00,WeatherCatV1.23B14,2013-12-25 17:15:00,
2013-12-25 11:20:00,51.7,45.1,30.34,West,264,0.0,1.0,78,0.00,,,0.00,WeatherCatV1.23B14,2013-12-25 17:20:00,
2013-12-25 11:25:00,51.6,44.6,30.34,North,359,0.0,0.0,77,0.00,,,0.00,WeatherCatV1.23B14,2013-12-25 17:25:00,
2013-12-25 11:30:00,51.8,44.5,30.34,North,359,0.0,1.0,76,0.00,,,0.00,WeatherCatV1.23B14,2013-12-25 17:30:00,
2013-12-25 11:35:00,52.1,45.1,30.34,ESE,108,0.0,1.0,77,0.00,,,0.00,WeatherCatV1.23B14,2013-12-25 17:35:00,
2013-12-25 11:40:00,52.5,45.5,30.34,ESE,108,0.0,1.0,77,0.00,,,0.00,WeatherCatV1.23B14,2013-12-25 17:40:00,
2013-12-25 11:45:00,52.8,45.5,30.34,ESE,108,0.0,1.0,76,0.00,,,0.00,WeatherCatV1.23B14,2013-12-25 17:45:00,
2013-12-25 11:50:00,53.0,45.3,30.34,SE,136,1.0,1.0,75,0.00,,,0.00,WeatherCatV1.23B14,2013-12-25 17:50:00,
2013-12-25 11:55:00,53.0,45.3,30.33,SE,127,2.0,4.0,75,0.00,,,0.00,WeatherCatV1.23B14,2013-12-25 17:55:00,
2013-12-25 12:00:00,53.5,45.8,30.33,East,94,0.0,1.0,75,0.00,,,0.00,WeatherCatV1.23B14,2013-12-25 18:00:00,
2013-12-25 12:05:00,54.5,46.0,30.33,ESE,114,0.0,1.0,73,0.00,,,0.00,WeatherCatV1.23B14,2013-12-25 18:05:00,
2013-12-25 12:10:00,54.7,46.6,30.32,SSE,147,0.0,2.0,74,0.00,,,0.00,WeatherCatV1.23B14,2013-12-25 18:10:00,
2013-12-25 12:15:00,55.2,46.0,30.32,SE,128,2.0,3.0,71,0.00,,,0.00,WeatherCatV1.23B14,2013-12-25 18:15:00,
2013-12-25 12:20:00,55.1,46.2,30.31,East,91,0.0,2.0,72,0.00,,,0.00,WeatherCatV1.23B14,2013-12-25 18:20:00,
2013-12-25 12:25:00,55.2,46.0,30.31,ESE,112,0.0,2.0,71,0.00,,,0.00,WeatherCatV1.23B14,2013-12-25 18:25:00,
2013-12-25 12:30:00,55.1,46.2,30.31,SE,146,0.0,1.0,72,0.00,,,0.00,WeatherCatV1.23B14,2013-12-25 18:30:00,
2013-12-25 12:35:00,55.7,46.4,30.31,SE,136,1.0,1.0,71,0.00,,,0.00,WeatherCatV1.23B14,2013-12-25 18:35:00,
2013-12-25 12:40:00,56.3,47.0,30.30,ESE,113,2.0,3.0,71,0.00,,,0.00,WeatherCatV1.23B14,2013-12-25 18:40:00,
2013-12-25 12:45:00,56.7,47.4,30.30,South,169,0.0,2.0,71,0.00,,,0.00,WeatherCatV1.23B14,2013-12-25 18:45:00,
2013-12-25 12:50:00,56.8,46.7,30.29,North,5,1.0,2.0,69,0.00,,,0.00,WeatherCatV1.23B14,2013-12-25 18:50:00,
2013-12-25 12:55:00,57.1,47.4,30.29,SE,146,0.0,1.0,70,0.00,,,0.00,WeatherCatV1.23B14,2013-12-25 18:55:00,
2013-12-25 13:00:00,57.5,47.8,30.29,ESE,122,0.0,3.0,70,0.00,,,0.00,WeatherCatV1.23B14,2013-12-25 19:00:00,
2013-12-25 13:05:00,57.9,47.4,30.29,ESE,119,1.0,2.0,68,0.00,,,0.00,WeatherCatV1.23B14,2013-12-25 19:05:00,
2013-12-25 13:10:00,57.5,47.0,30.28,SSE,156,0.0,1.0,68,0.00,,,0.00,WeatherCatV1.23B14,2013-12-25 19:10:00,
2013-12-25 13:15:00,57.4,47.3,30.28,ESE,108,0.0,3.0,69,0.00,,,0.00,WeatherCatV1.23B14,2013-12-25 19:15:00,
2013-12-25 13:20:00,57.8,47.7,30.28,SSE,158,0.0,1.0,69,0.00,,,0.00,WeatherCatV1.23B14,2013-12-25 19:20:00,
2013-12-25 13:25:00,58.4,48.3,30.28,SE,142,1.0,1.0,69,0.00,,,0.00,WeatherCatV1.23B14,2013-12-25 19:25:00,
2013-12-25 13:30:00,58.4,48.3,30.27,ESE,117,1.0,3.0,69,0.00,,,0.00,WeatherCatV1.23B14,2013-12-25 19:30:00,
2013-12-25 13:35:00,58.6,48.1,30.27,SW,233,0.0,2.0,68,0.00,,,0.00,WeatherCatV1.23B14,2013-12-25 19:35:00,
2013-12-25 13:40:00,58.7,48.2,30.27,SSE,165,1.0,3.0,68,0.00,,,0.00,WeatherCatV1.23B14,2013-12-25 19:40:00,
2013-12-25 13:44:00,58.6,48.1,30.27,ESE,112,2.0,3.0,68,0.00,,,0.00,WeatherCatV1.23B14,2013-12-25 19:44:00,
2013-12-25 13:49:00,58.5,48.4,30.27,SSE,162,2.0,2.0,69,0.00,,,0.00,WeatherCatV1.23B14,2013-12-25 19:49:00,
2013-12-25 13:54:00,58.2,47.7,30.27,SE,127,1.0,4.0,68,0.00,,,0.00,WeatherCatV1.23B14,2013-12-25 19:54:00,
2013-12-25 13:59:00,57.9,48.2,30.27,ESE,122,0.0,1.0,70,0.00,,,0.00,WeatherCatV1.23B14,2013-12-25 19:59:00,
2013-12-25 14:04:00,58.2,48.5,30.27,ESE,113,0.0,2.0,70,0.00,,,0.00,WeatherCatV1.23B14,2013-12-25 20:04:00,
2013-12-25 14:09:00,58.7,48.9,30.27,ESE,123,1.0,2.0,70,0.00,,,0.00,WeatherCatV1.23B14,2013-12-25 20:09:00,
2013-12-25 14:14:00,58.8,48.3,30.26,SSE,149,0.0,0.0,68,0.00,,,0.00,WeatherCatV1.23B14,2013-12-25 20:14:00,
2013-12-25 14:19:00,59.1,48.5,30.26,SE,125,0.0,2.0,68,0.00,,,0.00,WeatherCatV1.23B14,2013-12-25 20:19:00,
2013-12-25 14:24:00,59.0,48.5,30.26,ESE,102,0.0,4.0,68,0.00,,,0.00,WeatherCatV1.23B14,2013-12-25 20:24:00,
2013-12-25 14:29:00,58.8,48.7,30.26,SSW,199,0.0,0.0,69,0.00,,,0.00,WeatherCatV1.23B14,2013-12-25 20:29:00,
2013-12-25 14:34:00,58.7,48.2,30.26,ESE,109,0.0,2.0,68,0.00,,,0.00,WeatherCatV1.23B14,2013-12-25 20:34:00,
2013-12-25 14:39:00,59.0,48.8,30.27,ESE,119,1.0,2.0,69,0.00,,,0.00,WeatherCatV1.23B14,2013-12-25 20:39:00,
2013-12-25 14:44:00,59.5,49.3,30.26,SE,130,2.0,2.0,69,0.00,,,0.00,WeatherCatV1.23B14,2013-12-25 20:44:00,
2013-12-25 14:49:00,59.4,48.8,30.26,ESE,108,1.0,2.0,68,0.00,,,0.00,WeatherCatV1.23B14,2013-12-25 20:49:00,
2013-12-25 14:54:00,59.0,48.8,30.26,ESE,123,0.0,1.0,69,0.00,,,0.00,WeatherCatV1.23B14,2013-12-25 20:54:00,
2013-12-25 14:59:00,59.1,48.9,30.26,SSE,162,0.0,1.0,69,0.00,,,0.00,WeatherCatV1.23B14,2013-12-25 20:59:00,
2013-12-25 15:04:00,58.8,48.3,30.26,ESE,115,0.0,2.0,68,0.00,,,0.00,WeatherCatV1.23B14,2013-12-25 21:04:00,
2013-12-25 15:09:00,58.7,48.9,30.26,ESE,120,0.0,0.0,70,0.00,,,0.00,WeatherCatV1.23B14,2013-12-25 21:09:00,
2013-12-25 15:14:00,58.8,49.0,30.26,ESE,120,0.0,1.0,70,0.00,,,0.00,WeatherCatV1.23B14,2013-12-25 21:14:00,
2013-12-25 15:19:00,58.8,48.7,30.26,SE,136,0.0,0.0,69,0.00,,,0.00,WeatherCatV1.23B14,2013-12-25 21:19:00,
2013-12-25 15:24:00,58.6,48.5,30.26,ESE,111,0.0,1.0,69,0.00,,,0.00,WeatherCatV1.23B14,2013-12-25 21:24:00,
2013-12-25 15:29:00,58.7,48.9,30.26,ESE,111,0.0,1.0,70,0.00,,,0.00,WeatherCatV1.23B14,2013-12-25 21:29:00,
2013-12-25 15:34:00,58.8,49.0,30.27,South,184,0.0,1.0,70,0.00,,,0.00,WeatherCatV1.23B14,2013-12-25 21:34:00,
2013-12-25 15:39:00,58.8,48.7,30.27,ESE,113,0.0,2.0,69,0.00,,,0.00,WeatherCatV1.23B14,2013-12-25 21:39:00,
2013-12-25 15:44:00,58.9,49.1,30.27,South,169,0.0,1.0,70,0.00,,,0.00,WeatherCatV1.23B14,2013-12-25 21:44:00,
2013-12-25 15:49:00,59.1,49.3,30.27,ESE,123,0.0,0.0,70,0.00,,,0.00,WeatherCatV1.23B14,2013-12-25 21:49:00,
2013-12-25 15:54:00,59.1,48.9,30.27,SE,124,0.0,0.0,69,0.00,,,0.00,WeatherCatV1.23B14,2013-12-25 21:54:00,
2013-12-25 15:59:00,59.1,48.9,30.27,SE,146,0.0,0.0,69,0.00,,,0.00,WeatherCatV1.23B14,2013-12-25 21:59:00,
2013-12-25 16:04:00,58.9,48.8,30.27,SSE,147,0.0,0.0,69,0.00,,,0.00,WeatherCatV1.23B14,2013-12-25 22:04:00,
2013-12-25 16:09:00,58.7,48.5,30.27,SE,146,0.0,0.0,69,0.00,,,0.00,WeatherCatV1.23B14,2013-12-25 22:09:00,
2013-12-25 16:14:00,58.4,49.0,30.27,ESE,115,0.0,1.0,71,0.00,,,0.00,WeatherCatV1.23B14,2013-12-25 22:14:00,
2013-12-25 16:19:00,58.4,49.0,30.27,ESE,115,0.0,0.0,71,0.00,,,0.00,WeatherCatV1.23B14,2013-12-25 22:19:00,
2013-12-25 16:24:00,58.4,49.0,30.27,ESE,115,0.0,0.0,71,0.00,,,0.00,WeatherCatV1.23B14,2013-12-25 22:24:00,
2013-12-25 16:29:00,58.3,49.3,30.27,ESE,115,0.0,0.0,72,0.00,,,0.00,WeatherCatV1.23B14,2013-12-25 22:29:00,
2013-12-25 16:34:00,58.1,48.7,30.27,ESE,116,0.0,0.0,71,0.00,,,0.00,WeatherCatV1.23B14,2013-12-25 22:34:00,
2013-12-25 16:39:00,57.9,49.7,30.27,ESE,116,0.0,0.0,74,0.00,,,0.00,WeatherCatV1.23B14,2013-12-25 22:39:00,
2013-12-25 16:44:00,57.6,49.7,30.27,ESE,116,0.0,0.0,75,0.00,,,0.00,WeatherCatV1.23B14,2013-12-25 22:44:00,
2013-12-25 16:49:00,57.2,50.0,30.27,ESE,116,0.0,0.0,77,0.00,,,0.00,WeatherCatV1.23B14,2013-12-25 22:49:00,
2013-12-25 16:54:00,56.8,49.7,30.28,ESE,116,0.0,0.0,77,0.00,,,0.00,WeatherCatV1.23B14,2013-12-25 22:54:00,
2013-12-25 16:59:00,56.4,49.6,30.28,ESE,116,0.0,0.0,78,0.00,,,0.00,WeatherCatV1.23B14,2013-12-25 22:59:00,
2013-12-25 17:04:00,56.1,49.7,30.28,ESE,116,0.0,0.0,79,0.00,,,0.00,WeatherCatV1.23B14,2013-12-25 23:04:00,
2013-12-25 17:09:00,55.8,49.7,30.28,ESE,116,0.0,0.0,80,0.00,,,0.00,WeatherCatV1.23B14,2013-12-25 23:09:00,
2013-12-25 17:14:00,55.4,49.3,30.27,ESE,116,0.0,0.0,80,0.00,,,0.00,WeatherCatV1.23B14,2013-12-25 23:14:00,
2013-12-25 17:19:00,55.2,49.5,30.28,ESE,116,0.0,0.0,81,0.00,,,0.00,WeatherCatV1.23B14,2013-12-25 23:19:00,
2013-12-25 17:24:00,55.0,49.6,30.28,ESE,116,0.0,0.0,82,0.00,,,0.00,WeatherCatV1.23B14,2013-12-25 23:24:00,
2013-12-25 17:29:00,54.9,48.8,30.28,ESE,111,0.0,1.0,80,0.00,,,0.00,WeatherCatV1.23B14,2013-12-25 23:29:00,
2013-12-25 17:34:00,55.0,48.6,30.28,SE,134,0.0,2.0,79,0.00,,,0.00,WeatherCatV1.23B14,2013-12-25 23:34:00,
2013-12-25 17:39:00,54.9,48.2,30.28,SSE,148,0.0,1.0,78,0.00,,,0.00,WeatherCatV1.23B14,2013-12-25 23:39:00,
2013-12-25 17:44:00,54.7,47.6,30.28,SE,129,0.0,1.0,77,0.00,,,0.00,WeatherCatV1.23B14,2013-12-25 23:44:00,
2013-12-25 17:49:00,54.5,47.8,30.28,SSE,167,2.0,2.0,78,0.00,,,0.00,WeatherCatV1.23B14,2013-12-25 23:49:00,
2013-12-25 17:54:00,54.3,47.6,30.29,SSE,163,1.0,1.0,78,0.00,,,0.00,WeatherCatV1.23B14,2013-12-25 23:54:00,
2013-12-25 17:59:00,54.2,47.5,30.29,ESE,110,0.0,0.0,78,0.00,,,0.00,WeatherCatV1.23B14,2013-12-25 23:59:00,
2013-12-25 18:04:00,53.9,47.2,30.29,SE,131,2.0,3.0,78,0.00,,,0.00,WeatherCatV1.23B14,2013-12-26 00:04:00,
2013-12-25 18:09:00,53.8,47.1,30.29,ESE,110,0.0,4.0,78,0.00,,,0.00,WeatherCatV1.23B14,2013-12-26 00:09:00,
2013-12-25 18:14:00,53.6,46.9,30.29,ESE,120,0.0,1.0,78,0.00,,,0.00,WeatherCatV1.23B14,2013-12-26 00:14:00,
2013-12-25 18:19:00,53.5,46.8,30.30,SE,128,0.0,3.0,78,0.00,,,0.00,WeatherCatV1.23B14,2013-12-26 00:19:00,
2013-12-25 18:24:00,53.3,46.6,30.30,SE,126,0.0,2.0,78,0.00,,,0.00,WeatherCatV1.23B14,2013-12-26 00:24:00,
2013-12-25 18:29:00,53.2,46.9,30.30,ESE,120,0.0,0.0,79,0.00,,,0.00,WeatherCatV1.23B14,2013-12-26 00:29:00,
2013-12-25 18:34:00,53.1,46.8,30.30,ESE,113,1.0,2.0,79,0.00,,,0.00,WeatherCatV1.23B14,2013-12-26 00:34:00,
2013-12-25 18:39:00,52.9,46.6,30.30,ESE,110,0.0,0.0,79,0.00,,,0.00,WeatherCatV1.23B14,2013-12-26 00:39:00,
2013-12-25 18:44:00,52.8,46.5,30.30,SE,133,0.0,0.0,79,0.00,,,0.00,WeatherCatV1.23B14,2013-12-26 00:44:00,
2013-12-25 18:49:00,52.7,46.4,30.31,ESE,106,0.0,2.0,79,0.00,,,0.00,WeatherCatV1.23B14,2013-12-26 00:49:00,
2013-12-25 18:54:00,52.6,46.6,30.31,ESE,106,0.0,1.0,80,0.00,,,0.00,WeatherCatV1.23B14,2013-12-26 00:54:00,
2013-12-25 18:59:00,52.4,46.4,30.31,ESE,106,0.0,0.0,80,0.00,,,0.00,WeatherCatV1.23B14,2013-12-26 00:59:00,
2013-12-25 19:04:00,52.3,46.3,30.31,ESE,106,0.0,0.0,80,0.00,,,0.00,WeatherCatV1.23B14,2013-12-26 01:04:00,
2013-12-25 19:09:00,52.2,46.5,30.32,ESE,106,0.0,0.0,81,0.00,,,0.00,WeatherCatV1.23B14,2013-12-26 01:09:00,
2013-12-25 19:14:00,52.1,46.5,30.32,NNW,345,0.0,0.0,81,0.00,,,0.00,WeatherCatV1.23B14,2013-12-26 01:14:00,
2013-12-25 19:19:00,52.0,46.3,30.32,East,84,0.0,0.0,81,0.00,,,0.00,WeatherCatV1.23B14,2013-12-26 01:19:00,
2013-12-25 19:24:00,52.0,46.3,30.32,ESE,107,0.0,0.0,81,0.00,,,0.00,WeatherCatV1.23B14,2013-12-26 01:24:00,
2013-12-25 19:29:00,51.9,46.2,30.32,ESE,103,0.0,2.0,81,0.00,,,0.00,WeatherCatV1.23B14,2013-12-26 01:29:00,
2013-12-25 19:34:00,51.9,46.2,30.33,ESE,103,0.0,1.0,81,0.00,,,0.00,WeatherCatV1.23B14,2013-12-26 01:34:00,
2013-12-25 19:39:00,51.9,46.2,30.33,ESE,123,0.0,1.0,81,0.00,,,0.00,WeatherCatV1.23B14,2013-12-26 01:39:00,
2013-12-25 19:44:00,51.8,46.2,30.33,ESE,123,0.0,0.0,81,0.00,,,0.00,WeatherCatV1.23B14,2013-12-26 01:44:00,
2013-12-25 19:49:00,51.7,46.4,30.34,West,280,0.0,0.0,82,0.00,,,0.00,WeatherCatV1.23B14,2013-12-26 01:49:00,
2013-12-25 19:54:00,51.7,46.7,30.34,West,280,0.0,0.0,83,0.00,,,0.00,WeatherCatV1.23B14,2013-12-26 01:54:00,
2013-12-25 19:59:00,51.6,46.6,30.35,NW,306,0.0,1.0,83,0.00,,,0.00,WeatherCatV1.23B14,2013-12-26 01:59:00,
2013-12-25 20:04:00,51.4,46.4,30.35,NE,49,0.0,1.0,83,0.00,,,0.00,WeatherCatV1.23B14,2013-12-26 02:04:00,
2013-12-25 20:09:00,51.4,46.4,30.35,West,278,0.0,1.0,83,0.00,,,0.00,WeatherCatV1.23B14,2013-12-26 02:09:00,
2013-12-25 20:14:00,51.4,46.7,30.35,West,278,0.0,0.0,84,0.00,,,0.00,WeatherCatV1.23B14,2013-12-26 02:14:00,
2013-12-25 20:19:00,51.4,46.1,30.36,North,357,1.0,6.0,82,0.00,,,0.00,WeatherCatV1.23B14,2013-12-26 02:19:00,
2013-12-25 20:24:00,51.4,44.4,30.36,NW,314,2.0,5.0,77,0.00,,,0.00,WeatherCatV1.23B14,2013-12-26 02:24:00,
2013-12-25 20:29:00,51.1,42.4,30.36,North,6,3.0,4.0,72,0.00,,,0.00,WeatherCatV1.23B14,2013-12-26 02:29:00,
2013-12-25 20:34:00,50.8,41.4,30.36,NNE,20,0.0,1.0,70,0.00,,,0.00,WeatherCatV1.23B14,2013-12-26 02:34:00,
2013-12-25 20:39:00,50.6,41.2,30.37,NE,56,0.0,2.0,70,0.00,,,0.00,WeatherCatV1.23B14,2013-12-26 02:39:00,
2013-12-25 20:44:00,50.4,40.6,30.37,NNE,23,0.0,3.0,69,0.00,,,0.00,WeatherCatV1.23B14,2013-12-26 02:44:00,
2013-12-25 20:49:00,50.2,40.4,30.37,North,8,1.0,5.0,69,0.00,,,0.00,WeatherCatV1.23B14,2013-12-26 02:49:00,
2013-12-25 20:54:00,50.0,40.2,30.38,NNW,330,0.0,1.0,69,0.00,,,0.00,WeatherCatV1.23B14,2013-12-26 02:54:00,
2013-12-25 20:59:00,49.9,39.8,30.38,NE,49,2.0,4.0,68,0.00,,,0.00,WeatherCatV1.23B14,2013-12-26 02:59:00,
2013-12-25 21:04:00,49.7,40.0,30.38,North,0,0.0,0.0,69,0.00,,,0.00,WeatherCatV1.23B14,2013-12-26 03:04:00,
2013-12-25 21:09:00,49.6,39.8,30.38,NE,34,0.0,0.0,69,0.00,,,0.00,WeatherCatV1.23B14,2013-12-26 03:09:00,
2013-12-25 21:14:00,49.5,39.8,30.38,WSW,250,0.0,1.0,69,0.00,,,0.00,WeatherCatV1.23B14,2013-12-26 03:14:00,
2013-12-25 21:19:00,49.3,39.6,30.38,NW,310,0.0,3.0,69,0.00,,,0.00,WeatherCatV1.23B14,2013-12-26 03:19:00,
2013-12-25 21:24:00,49.1,39.4,30.38,NE,49,0.0,2.0,69,0.00,,,0.00,WeatherCatV1.23B14,2013-12-26 03:24:00,
2013-12-25 21:29:00,49.0,39.7,30.38,WSW,240,0.0,2.0,70,0.00,,,0.00,WeatherCatV1.23B14,2013-12-26 03:29:00,
2013-12-25 21:34:00,48.9,39.5,30.39,North,352,1.0,2.0,70,0.00,,,0.00,WeatherCatV1.23B14,2013-12-26 03:34:00,
2013-12-25 21:39:00,48.8,39.5,30.39,NNW,344,0.0,1.0,70,0.00,,,0.00,WeatherCatV1.23B14,2013-12-26 03:39:00,
2013-12-25 21:44:00,48.8,39.8,30.39,WSW,248,4.0,4.0,71,0.00,,,0.00,WeatherCatV1.23B14,2013-12-26 03:44:00,
2013-12-25 21:49:00,48.7,39.4,30.39,NNW,338,0.0,1.0,70,0.00,,,0.00,WeatherCatV1.23B14,2013-12-26 03:49:00,
2013-12-25 21:54:00,48.5,39.2,30.39,North,357,0.0,1.0,70,0.00,,,0.00,WeatherCatV1.23B14,2013-12-26 03:54:00,
2013-12-25 21:59:00,48.4,39.1,30.39,NE,40,0.0,2.0,70,0.00,,,0.00,WeatherCatV1.23B14,2013-12-26 03:59:00,
2013-12-25 22:04:00,48.3,39.0,30.39,NE,35,2.0,2.0,70,0.00,,,0.00,WeatherCatV1.23B14,2013-12-26 04:04:00,
2013-12-25 22:09:00,48.3,39.0,30.39,West,264,0.0,1.0,70,0.00,,,0.00,WeatherCatV1.23B14,2013-12-26 04:09:00,
2013-12-25 22:14:00,48.2,39.2,30.39,NNE,23,0.0,1.0,71,0.00,,,0.00,WeatherCatV1.23B14,2013-12-26 04:14:00,
2013-12-25 22:19:00,48.1,39.2,30.39,North,349,0.0,2.0,71,0.00,,,0.00,WeatherCatV1.23B14,2013-12-26 04:19:00,
2013-12-25 22:24:00,48.0,39.0,30.39,WSW,242,0.0,3.0,71,0.00,,,0.00,WeatherCatV1.23B14,2013-12-26 04:24:00,
2013-12-25 22:29:00,47.9,39.0,30.40,NNE,27,0.0,1.0,71,0.00,,,0.00,WeatherCatV1.23B14,2013-12-26 04:29:00,
2013-12-25 22:34:00,47.8,38.9,30.40,North,8,1.0,1.0,71,0.00,,,0.00,WeatherCatV1.23B14,2013-12-26 04:34:00,
2013-12-25 22:39:00,47.7,39.1,30.40,NE,55,0.0,0.0,72,0.00,,,0.00,WeatherCatV1.23B14,2013-12-26 04:39:00,
2013-12-25 22:44:00,47.6,38.7,30.40,West,275,1.0,1.0,71,0.00,,,0.00,WeatherCatV1.23B14,2013-12-26 04:44:00,
2013-12-25 22:49:00,47.5,38.6,30.40,WSW,245,0.0,1.0,71,0.00,,,0.00,WeatherCatV1.23B14,2013-12-26 04:49:00,
2013-12-25 22:54:00,47.5,38.6,30.40,NNW,343,0.0,3.0,71,0.00,,,0.00,WeatherCatV1.23B14,2013-12-26 04:54:00,
2013-12-25 22:59:00,47.4,38.8,30.40,WSW,247,1.0,1.0,72,0.00,,,0.00,WeatherCatV1.23B14,2013-12-26 04:59:00,
2013-12-25 23:01:00,47.4,38.5,30.40,North,359,0.0,2.0,71,0.00,,,0.00,WeatherCatV1.23B14,2013-12-26 05:01:00,
2013-12-25 23:06:00,47.3,38.7,30.40,NNE,14,0.0,2.0,72,0.00,,,0.00,WeatherCatV1.23B14,2013-12-26 05:06:00,
2013-12-25 23:11:00,47.2,39.0,30.40,North,6,0.0,0.0,73,0.00,,,0.00,WeatherCatV1.23B14,2013-12-26 05:11:00,
2013-12-25 23:16:00,47.1,38.5,30.41,SSE,162,0.0,0.0,72,0.00,,,0.00,WeatherCatV1.23B14,2013-12-26 05:16:00,
2013-12-25 23:21:00,47.0,38.1,30.40,NW,318,0.0,4.0,71,0.00,,,0.00,WeatherCatV1.23B14,2013-12-26 05:21:00,
2013-12-25 23:26:00,46.9,38.3,30.40,West,274,0.0,2.0,72,0.00,,,0.00,WeatherCatV1.23B14,2013-12-26 05:26:00,
2013-12-25 23:31:00,46.8,38.3,30.40,West,269,0.0,1.0,72,0.00,,,0.00,WeatherCatV1.23B14,2013-12-26 05:31:00,
2013-12-25 23:36:00,46.6,38.1,30.40,ENE,61,0.0,1.0,72,0.00,,,0.00,WeatherCatV1.23B14,2013-12-26 05:36:00,
2013-12-25 23:41:00,46.5,38.0,30.40,NW,312,0.0,1.0,72,0.00,,,0.00,WeatherCatV1.23B14,2013-12-26 05:41:00,
2013-12-25 23:46:00,46.3,37.8,30.40,West,276,0.0,1.0,72,0.00,,,0.00,WeatherCatV1.23B14,2013-12-26 05:46:00,
2013-12-25 23:51:00,46.2,37.7,30.40,North,6,0.0,3.0,72,0.00,,,0.00,WeatherCatV1.23B14,2013-12-26 05:51:00,
2013-12-25 23:56:00,46.0,37.8,30.40,ENE,78,0.0,1.0,73,0.00,,,0.00,WeatherCatV1.23B14,2013-12-26 05:56:00,